Bookmark and Share
Track history (hours):
 

Nikkei Verde

Last reported at 2014-Apr-11 04:33 UTC. Time now 2014-Apr-24 21:55 UTC.
Position N 22°54' E 117°02'.
Warning: this ship's position is 13 days out of date.

Length 189 m; draft 7.7 m.

Type: Cargo ship. MMSI: 354519000.

NotesDate/timePositionNaut miles runAvg speedWind from/ knotsBaromVisibWave heightAir tempDewpointWater temp
2014-Apr-11 04:33N 22°54' E 117°02'1715.3
2014-Apr-11 03:28N 23°02' E 117°18'1415.0
2014-Apr-11 02:33N 23°09' E 117°31'1714.8
2014-Apr-11 01:24N 23°18' E 117°47'1214.4
2014-Apr-11 00:33N 23°24' E 117°58'1414.1
2014-Apr-10 23:33N 23°33' E 118°10'1414.1
2014-Apr-10 22:33N 23°42' E 118°22'1414.2
2014-Apr-10 21:33N 23°51' E 118°34'1414.0
2014-Apr-10 20:33N 24°00' E 118°45'1414.1
2014-Apr-10 19:33N 24°10' E 118°57'1413.9
2014-Apr-10 18:33N 24°19' E 119°08'1413.8
2014-Apr-10 17:33N 24°28' E 119°20'1313.3
2014-Apr-10 16:34N 24°36' E 119°31'1313.4
2014-Apr-10 15:34N 24°45' E 119°42'1413.7
2014-Apr-10 14:33N 24°54' E 119°54'1413.7
2014-Apr-10 13:33N 25°03' E 120°05'1414.4
2014-Apr-10 12:34N 25°12' E 120°17'1514.8
2014-Apr-10 11:33N 25°22' E 120°30'1515.1
2014-Apr-10 10:33N 25°33' E 120°42'10414.6
2014-Apr-10 03:26N 27°05' E 121°36'1314.7
2014-Apr-10 02:33N 27°17' E 121°42'1514.8
2014-Apr-10 01:33N 27°30' E 121°49'1514.7
2014-Apr-10 00:32N 27°43' E 121°58'7114.2
2014-Apr-09 19:32N 28°45' E 122°36'1714.2
2014-Apr-09 18:18N 29°01' E 122°45'1114.4
2014-Apr-09 17:33N 29°11' E 122°50'1414.1
2014-Apr-09 16:33N 29°23' E 122°57'1514.5
2014-Apr-09 15:33N 29°36' E 123°05'1414.5
2014-Apr-09 14:33N 29°49' E 123°13'1514.4
2014-Apr-09 13:32N 30°02' E 123°20'10311.4
2014-Apr-09 04:29N 31°15' E 121°55'1313.6
2014-Apr-09 03:33N 31°20' E 121°41'1111.2
2014-Apr-09 02:33N 31°26' E 121°30'1010.1
2014-Apr-09 01:33N 31°32' E 121°21'6 5.5
2014-Apr-09 00:26N 31°37' E 121°17'0 0.1
2014-Apr-08 23:33N 31°37' E 121°17'0 0.1
2014-Apr-08 22:32N 31°37' E 121°17'0 0.1
2014-Apr-08 21:33N 31°37' E 121°17'0 0.1
2014-Apr-08 20:33N 31°37' E 121°17'1 1.2
2014-Apr-08 19:33N 31°37' E 121°16'1313.2
2014-Apr-08 18:32N 31°46' E 121°03'1212.2
2014-Apr-08 17:33N 31°54' E 120°53'1211.7
2014-Apr-08 16:33N 32°00' E 120°41'1111.2
2014-Apr-08 15:34N 32°04' E 120°29'1212.1
2014-Apr-08 14:33N 31°57' E 120°17'1111.0
2014-Apr-08 13:33N 31°57' E 120°04'1413.7
2014-Apr-08 12:33N 32°08' E 119°54'1313.0
2014-Apr-08 11:33N 32°19' E 119°47'  
2014-Apr-05 00:13N 32°15' E 119°41'2 0.3
2014-Apr-04 19:25N 32°17' E 119°42'0 0.0
2014-Apr-04 18:32N 32°17' E 119°42'0 0.0
2014-Apr-04 17:16N 32°17' E 119°42'0 0.0
2014-Apr-04 16:13N 32°17' E 119°42'0 0.0
2014-Apr-03 23:32N 32°17' E 119°42'0 0.0
2014-Apr-03 18:14N 32°17' E 119°42'0 0.0
2014-Apr-03 16:14N 32°17' E 119°42'8 1.1
2014-Apr-03 09:11N 32°16' E 119°52'7 9.2
2014-Apr-03 08:23N 32°09' E 119°54'5 5.6
2014-Apr-03 07:29N 32°04' E 119°56'0 0.0
2014-Apr-03 06:17N 32°04' E 119°56'0 0.0
2014-Apr-03 05:29N 32°04' E 119°56'0 0.0
2014-Apr-03 04:29N 32°04' E 119°56'0 0.0
2014-Apr-03 03:17N 32°04' E 119°56'0 0.1
2014-Apr-03 02:32N 32°04' E 119°56'0 0.0
2014-Apr-03 01:32N 32°04' E 119°56'0 0.2
2014-Apr-03 00:32N 32°05' E 119°56'0 0.0
2014-Apr-02 23:32N 32°05' E 119°56'0 0.0
2014-Apr-02 22:29N 32°05' E 119°56'0 0.1
2014-Apr-02 21:23N 32°05' E 119°56'0 0.2
2014-Apr-02 20:29N 32°04' E 119°56'0 0.0
2014-Apr-02 19:32N 32°04' E 119°56'0 0.0
2014-Apr-02 18:29N 32°04' E 119°56'0 0.0
2014-Apr-02 17:29N 32°04' E 119°56'0 0.0
2014-Apr-02 16:26N 32°04' E 119°56'0 0.0
2014-Apr-02 15:29N 32°04' E 119°56'0 0.0
2014-Apr-02 14:23N 32°04' E 119°56'0 0.0
2014-Apr-02 13:32N 32°04' E 119°56'0 0.2
2014-Apr-02 12:23N 32°05' E 119°56'0 0.0
2014-Apr-02 11:20N 32°05' E 119°56'0 0.0
2014-Apr-02 10:29N 32°05' E 119°56'1 0.6
2014-Apr-02 09:33N 32°04' E 119°56'1010.4
2014-Apr-02 08:33N 31°57' E 120°05'9 9.0
2014-Apr-02 07:33N 31°57' E 120°15'10 9.6
2014-Apr-02 06:34N 31°59' E 120°27'7 6.5
2014-Apr-02 05:33N 32°01' E 120°34'1010.4
2014-Apr-02 04:34N 32°01' E 120°46'10 9.9
2014-Apr-02 03:34N 31°53' E 120°53'8 8.4
2014-Apr-02 02:34N 31°47' E 120°60'9 8.9
2014-Apr-02 01:34N 31°42' E 121°09'8 8.1
2014-Apr-02 00:33N 31°37' E 121°16'0 0.1
2014-Apr-01 23:33N 31°37' E 121°17'0 0.0
2014-Apr-01 22:32N 31°37' E 121°17'1 1.0
2014-Apr-01 21:33N 31°36' E 121°17'9 8.7
2014-Apr-01 20:33N 31°30' E 121°25'9 8.7
2014-Apr-01 19:33N 31°25' E 121°32'1110.7
2014-Apr-01 18:32N 31°19' E 121°43'1110.4
2014-Apr-01 17:31N 31°16' E 121°55'10 9.7
2014-Apr-01 16:30N 31°14' E 122°06'10 9.8
2014-Apr-01 15:27N 31°08' E 122°16'7 7.4
2014-Apr-01 14:31N 31°06' E 122°24'  

Dump ship's entire track history

sailing weather and tide predictions

Nikkei Verde — 3FEY7 — position and weather